Time;durP1;ratioP1;P1;durP2;ratioP2;P2;SDS_P1;SDS_P2;PMS_P1;PMS_P2;Temp;Humidity;BMP_temperature;BMP_pressure;BME280_temperature;BME280_humidity;BME280_pressure;Samples;Min_cycle;Max_cycle;Signal;HPM_P1;HPM_P2
2023/12/05 00:01:18;;;;;;;6.80;6.10;;;4.40;99.90;;;;;;5014825;28;20196;-89
2023/12/05 00:03:44;;;;;;;8.13;6.73;;;4.20;99.90;;;;;;4997870;28;20208;-89
2023/12/05 00:06:10;;;;;;;7.90;6.50;;;4.00;99.90;;;;;;5013945;28;20676;-89
2023/12/05 00:08:36;;;;;;;8.73;6.88;;;4.30;99.90;;;;;;5013468;28;20642;-89
2023/12/05 00:11:08;;;;;;;7.67;6.60;;;4.10;99.90;;;;;;5017158;28;20198;-89
2023/12/05 00:13:34;;;;;;;8.45;6.68;;;4.60;99.90;;;;;;5012281;28;20256;-89
2023/12/05 00:16:00;;;;;;;7.32;6.38;;;4.30;99.90;;;;;;5012053;28;20215;-89
2023/12/05 00:18:26;;;;;;;7.20;6.20;;;4.30;99.90;;;;;;4997615;28;20208;-89
2023/12/05 00:20:52;;;;;;;8.90;7.57;;;4.00;99.90;;;;;;5014271;28;20475;-89
2023/12/05 00:23:18;;;;;;;7.13;6.03;;;4.10;99.90;;;;;;4995823;28;20227;-89
2023/12/05 00:25:43;;;;;;;8.10;6.83;;;4.60;99.90;;;;;;5011903;28;20180;-89
2023/12/05 00:28:10;;;;;;;8.10;6.67;;;4.50;99.90;;;;;;4994936;28;20176;-89
2023/12/05 00:30:35;;;;;;;6.78;6.00;;;4.30;99.90;;;;;;5011907;28;20179;-90
2023/12/05 00:33:01;;;;;;;11.53;6.63;;;4.00;99.90;;;;;;4996416;28;20181;-91
2023/12/05 00:35:26;;;;;;;6.30;5.67;;;4.10;99.90;;;;;;5007681;28;20180;-90
2023/12/05 00:37:52;;;;;;;7.57;6.10;;;4.20;99.90;;;;;;4994121;28;20274;-90
2023/12/05 00:40:19;;;;;;;7.03;6.30;;;4.20;99.90;;;;;;5014785;28;20193;-89
2023/12/05 00:42:44;;;;;;;7.80;6.38;;;4.10;99.90;;;;;;4996429;28;20560;-89
2023/12/05 00:45:13;;;;;;;7.40;6.63;;;4.20;99.90;;;;;;5010701;28;20705;-89
2023/12/05 00:47:39;;;;;;;7.72;5.90;;;4.40;99.90;;;;;;4995233;28;20209;-90
2023/12/05 00:50:05;;;;;;;8.77;6.68;;;4.20;99.90;;;;;;5011999;28;20179;-90
2023/12/05 00:52:31;;;;;;;6.97;5.88;;;4.10;99.90;;;;;;5009679;28;20184;-89
2023/12/05 00:54:56;;;;;;;9.33;6.07;;;4.60;99.90;;;;;;5011245;28;20220;-90
2023/12/05 00:57:22;;;;;;;7.73;6.07;;;4.20;99.90;;;;;;4997551;28;20239;-90
2023/12/05 00:59:48;;;;;;;6.30;5.07;;;4.60;99.90;;;;;;5009804;28;20192;-90
2023/12/05 01:02:13;;;;;;;6.57;5.87;;;4.40;99.90;;;;;;5012975;28;20196;-90
2023/12/05 01:04:39;;;;;;;6.67;5.70;;;4.20;99.90;;;;;;5010022;28;20206;-90
2023/12/05 01:07:04;;;;;;;8.13;5.90;;;4.50;99.90;;;;;;4998565;28;20532;-89
2023/12/05 01:09:30;;;;;;;6.30;5.40;;;4.10;99.90;;;;;;5014137;28;20193;-90
2023/12/05 01:11:55;;;;;;;5.60;4.80;;;4.60;99.90;;;;;;5017821;28;20196;-90
2023/12/05 01:14:21;;;;;;;5.33;4.63;;;4.20;99.90;;;;;;5005133;28;20317;-90
2023/12/05 01:16:47;;;;;;;5.30;4.80;;;4.50;99.90;;;;;;5036143;28;20220;-90
2023/12/05 01:19:13;;;;;;;4.23;3.83;;;4.20;99.90;;;;;;5005222;28;20455;-90
2023/12/05 01:21:39;;;;;;;5.15;4.30;;;4.20;99.90;;;;;;5009256;28;20191;-89
2023/12/05 01:24:04;;;;;;;4.43;4.03;;;4.20;99.90;;;;;;5003472;28;20779;-90
2023/12/05 01:26:30;;;;;;;4.63;4.00;;;4.30;99.90;;;;;;5019213;28;20213;-90
2023/12/05 01:28:55;;;;;;;4.37;3.77;;;4.30;99.90;;;;;;5003399;28;20312;-90
2023/12/05 01:31:21;;;;;;;5.50;3.80;;;;;;;;;;5026068;28;20189;-90
2023/12/05 01:33:47;;;;;;;3.92;3.53;;;4.40;99.90;;;;;;5016380;28;20211;-89
2023/12/05 01:36:13;;;;;;;3.97;3.57;;;4.20;99.90;;;;;;5016130;28;20207;-90
2023/12/05 01:38:39;;;;;;;3.60;3.30;;;4.50;99.90;;;;;;5020409;28;20192;-90
2023/12/05 01:41:07;;;;;;;3.72;3.00;;;4.50;99.90;;;;;;5014434;28;20194;-88
2023/12/05 01:43:33;;;;;;;3.50;3.20;;;4.40;99.90;;;;;;5024593;28;20198;-88
2023/12/05 01:45:59;;;;;;;3.30;2.92;;;4.50;99.90;;;;;;5006169;28;20213;-89
2023/12/05 01:48:26;;;;;;;3.28;2.97;;;4.70;99.90;;;;;;5023675;28;20185;-90
2023/12/05 01:50:53;;;;;;;3.13;2.75;;;4.60;99.90;;;;;;5026156;28;20192;-89
2023/12/05 01:53:21;;;;;;;3.35;3.05;;;4.90;99.90;;;;;;5004299;28;20186;-89
2023/12/05 01:55:47;;;;;;;3.10;2.80;;;5.00;99.90;;;;;;4994898;28;20245;-88
2023/12/05 01:58:14;;;;;;;3.40;3.10;;;4.60;99.90;;;;;;5025748;28;20761;-89
2023/12/05 02:00:41;;;;;;;4.20;3.80;;;4.70;99.90;;;;;;4997485;28;20448;-89
2023/12/05 02:03:08;;;;;;;3.58;3.28;;;5.00;99.90;;;;;;5035670;28;20204;-90
2023/12/05 02:05:34;;;;;;;4.03;2.95;;;4.80;99.90;;;;;;5034809;28;20169;-89
2023/12/05 02:07:59;;;;;;;3.10;2.80;;;4.60;99.90;;;;;;5036105;28;20197;-90
2023/12/05 02:10:25;;;;;;;4.30;3.90;;;5.20;99.90;;;;;;5037608;28;20266;-90
2023/12/05 02:12:51;;;;;;;3.20;2.90;;;4.90;99.90;;;;;;5034705;28;20473;-89
2023/12/05 02:15:16;;;;;;;3.63;3.33;;;5.00;99.90;;;;;;5012676;28;20220;-89
2023/12/05 02:18:13;;;;;;;3.70;3.40;;;5.20;99.90;;;;;;5036653;28;20209;-89
2023/12/05 02:20:46;;;;;;;4.22;3.35;;;4.70;99.90;;;;;;5038099;28;20446;-89
2023/12/05 02:24:00;;;;;;;4.00;3.60;;;4.60;99.90;;;;;;5035656;28;20173;-90
2023/12/05 02:26:51;;;;;;;3.88;3.58;;;4.60;99.90;;;;;;5039279;28;20192;-89
2023/12/05 02:29:17;;;;;;;4.03;3.40;;;4.50;99.90;;;;;;5035870;28;20184;-89
2023/12/05 02:31:43;;;;;;;3.63;3.13;;;4.50;99.90;;;;;;5002206;28;20189;-89
2023/12/05 02:34:09;;;;;;;3.87;3.57;;;4.60;99.90;;;;;;5032145;28;20201;-89
2023/12/05 02:36:46;;;;;;;5.73;4.00;;;4.30;99.90;;;;;;5018841;28;20263;-89
2023/12/05 02:39:38;;;;;;;3.28;2.97;;;4.40;99.90;;;;;;5001681;28;20644;-89
2023/12/05 02:42:10;;;;;;;4.43;3.90;;;4.70;99.90;;;;;;5018291;28;20242;-89
2023/12/05 02:44:50;;;;;;;6.68;3.80;;;4.20;99.90;;;;;;5014574;28;20202;-89
2023/12/05 02:47:19;;;;;;;3.97;3.58;;;4.30;99.90;;;;;;5016783;28;20653;-89
2023/12/05 02:49:44;;;;;;;4.40;3.90;;;3.90;99.90;;;;;;5018527;28;20194;-90
2023/12/05 02:52:10;;;;;;;4.00;3.57;;;4.40;99.90;;;;;;5001415;28;20201;-90
2023/12/05 02:54:36;;;;;;;3.80;3.43;;;3.90;99.90;;;;;;5015687;28;20207;-89
2023/12/05 02:57:01;;;;;;;4.10;3.67;;;4.10;99.90;;;;;;5013718;28;20469;-89
2023/12/05 02:59:27;;;;;;;4.23;3.83;;;4.10;99.90;;;;;;5014935;28;20184;-89
2023/12/05 03:01:52;;;;;;;4.60;3.93;;;3.80;99.90;;;;;;4997460;28;20441;-89
2023/12/05 03:04:18;;;;;;;4.17;3.77;;;4.20;99.90;;;;;;4993414;28;20304;-89
2023/12/05 03:06:44;;;;;;;4.23;3.60;;;4.30;99.90;;;;;;5013057;28;20185;-89
2023/12/05 03:09:10;;;;;;;4.38;3.90;;;4.30;99.90;;;;;;4992466;28;20198;-89
2023/12/05 03:11:35;;;;;;;4.67;3.93;;;3.70;99.90;;;;;;5013592;28;20183;-89
2023/12/05 03:14:03;;;;;;;5.47;4.37;;;3.70;99.90;;;;;;5012578;28;20200;-89
2023/12/05 03:16:28;;;;;;;4.00;3.60;;;3.70;99.90;;;;;;5013699;28;20479;-89
2023/12/05 03:18:55;;;;;;;4.10;3.70;;;4.20;99.90;;;;;;5011326;28;20241;-89
2023/12/05 03:21:20;;;;;;;4.38;3.60;;;4.00;99.90;;;;;;5012200;28;20197;-89
2023/12/05 03:23:46;;;;;;;3.63;3.33;;;3.60;99.90;;;;;;4996536;28;20202;-90
2023/12/05 03:26:19;;;;;;;5.73;4.20;;;3.70;99.90;;;;;;5010891;28;20563;-89
2023/12/05 03:28:44;;;;;;;4.07;3.67;;;4.20;99.90;;;;;;4992920;28;20240;-88
2023/12/05 03:31:10;;;;;;;7.30;4.57;;;3.90;99.90;;;;;;4997612;28;20219;-89
2023/12/05 03:33:38;;;;;;;5.23;4.23;;;3.80;99.90;;;;;;5011961;28;20612;-89
2023/12/05 03:36:05;;;;;;;3.95;3.25;;;3.60;99.90;;;;;;5012047;28;20220;-89
2023/12/05 03:38:32;;;;;;;6.07;4.80;;;3.80;99.90;;;;;;5009030;28;20222;-88
2023/12/05 03:40:57;;;;;;;5.85;4.60;;;3.80;99.90;;;;;;4994778;28;20657;-89
2023/12/05 03:43:23;;;;;;;4.70;4.20;;;3.80;99.90;;;;;;4994676;28;20244;-88
2023/12/05 03:45:48;;;;;;;5.80;3.83;;;4.90;99.90;;;;;;5010455;28;20187;-89
2023/12/05 03:48:14;;;;;;;4.73;4.23;;;3.80;99.90;;;;;;4996543;28;20188;-90
2023/12/05 03:50:40;;;;;;;4.10;3.60;;;2.20;99.90;;;;;;4998640;28;20573;-89
2023/12/05 03:53:05;;;;;;;4.07;3.67;;;4.20;99.90;;;;;;4996750;28;20181;-90
2023/12/05 03:55:34;;;;;;;4.40;4.00;;;4.00;99.90;;;;;;4994980;28;20193;-90
2023/12/05 03:58:00;;;;;;;5.38;4.88;;;4.10;99.90;;;;;;5010618;28;20221;-90
2023/12/05 04:00:26;;;;;;;4.93;4.05;;;4.00;99.90;;;;;;4994819;28;20185;-88
2023/12/05 04:02:52;;;;;;;5.10;4.47;;;4.30;99.90;;;;;;5009248;28;20192;-88
2023/12/05 04:05:18;;;;;;;5.43;4.47;;;4.50;99.90;;;;;;4993343;28;20823;-90
2023/12/05 04:07:45;;;;;;;4.70;4.17;;;4.00;99.90;;;;;;5008175;28;20262;-88
2023/12/05 04:10:11;;;;;;;6.25;4.90;;;4.20;99.90;;;;;;5012001;28;20443;-88
2023/12/05 04:12:40;;;;;;;4.05;3.65;;;4.30;99.90;;;;;;5010994;28;20190;-89
2023/12/05 04:15:07;;;;;;;4.72;3.70;;;4.00;99.90;;;;;;5007073;28;20679;-89
2023/12/05 04:17:33;;;;;;;4.18;3.85;;;3.70;99.90;;;;;;5011973;28;20216;-89
2023/12/05 04:19:59;;;;;;;5.22;4.50;;;4.10;99.90;;;;;;5012474;28;20203;-89
2023/12/05 04:22:24;;;;;;;4.20;3.80;;;4.00;99.90;;;;;;4994137;28;20231;-88
2023/12/05 04:24:50;;;;;;;6.30;4.13;;;4.00;99.90;;;;;;5011424;28;20216;-89
2023/12/05 04:27:16;;;;;;;4.43;4.00;;;3.30;99.90;;;;;;4994197;28;20196;-89
2023/12/05 04:29:42;;;;;;;6.20;4.43;;;3.30;99.90;;;;;;5010887;28;20197;-89
2023/12/05 04:32:08;;;;;;;5.05;4.25;;;3.20;99.90;;;;;;5008488;28;20197;-88
2023/12/05 04:34:35;;;;;;;5.87;4.50;;;3.10;99.90;;;;;;5016435;28;20193;-89
2023/12/05 04:37:00;;;;;;;7.80;5.65;;;3.20;99.90;;;;;;4994864;28;20224;-88
2023/12/05 04:39:26;;;;;;;4.90;4.40;;;3.40;99.90;;;;;;5010175;28;20266;-89
2023/12/05 04:41:51;;;;;;;4.83;4.33;;;3.40;99.90;;;;;;5015758;28;20213;-89
2023/12/05 04:44:17;;;;;;;4.33;3.77;;;3.30;99.90;;;;;;5013103;28;20577;-89
2023/12/05 04:46:42;;;;;;;4.47;3.77;;;3.40;99.90;;;;;;5021110;28;20192;-88
2023/12/05 04:49:08;;;;;;;5.37;3.87;;;3.50;99.90;;;;;;5025829;28;20251;-88
2023/12/05 04:51:34;;;;;;;5.30;4.67;;;3.60;99.90;;;;;;5018659;28;20203;-88
2023/12/05 04:54:00;;;;;;;4.40;3.60;;;3.90;99.90;;;;;;5017725;28;20484;-89
2023/12/05 04:56:26;;;;;;;5.10;4.60;;;4.10;99.90;;;;;;5015786;28;20737;-89
2023/12/05 04:58:51;;;;;;;5.30;4.15;;;4.20;99.90;;;;;;5017229;28;20450;-88
2023/12/05 05:01:17;;;;;;;4.30;3.53;;;4.20;99.90;;;;;;5016357;28;20189;-89
2023/12/05 05:03:44;;;;;;;4.17;3.77;;;3.60;99.90;;;;;;5015829;28;20205;-88
2023/12/05 05:06:10;;;;;;;4.13;3.50;;;3.60;99.90;;;;;;5005875;28;20197;-88
2023/12/05 05:08:36;;;;;;;4.45;3.72;;;3.80;99.90;;;;;;5027869;28;20233;-88
2023/12/05 05:11:02;;;;;;;5.53;3.93;;;3.90;99.90;;;;;;5003544;28;20621;-89
2023/12/05 05:13:28;;;;;;;4.18;3.42;;;4.10;99.90;;;;;;4998778;28;20215;-89
2023/12/05 05:15:53;;;;;;;4.47;3.80;;;4.20;99.90;;;;;;4997323;28;20192;-89
2023/12/05 05:18:19;;;;;;;5.37;4.60;;;4.30;99.90;;;;;;4998030;28;20213;-88
2023/12/05 05:20:44;;;;;;;7.17;3.90;;;4.40;99.90;;;;;;5020624;28;20183;-88
2023/12/05 05:23:11;;;;;;;4.50;3.57;;;4.60;99.90;;;;;;5005735;28;20645;-88
2023/12/05 05:25:36;;;;;;;8.02;4.43;;;4.70;99.90;;;;;;5016586;28;20220;-89
2023/12/05 05:28:02;;;;;;;4.20;3.17;;;4.50;99.90;;;;;;5016452;28;20186;-89
2023/12/05 05:30:27;;;;;;;5.00;3.33;;;4.60;99.90;;;;;;5001331;28;20186;-89
2023/12/05 05:32:54;;;;;;;4.23;3.63;;;4.60;99.90;;;;;;5014237;28;20185;-89
2023/12/05 05:35:20;;;;;;;4.13;3.40;;;4.70;99.90;;;;;;5002359;28;20200;-89
2023/12/05 05:37:45;;;;;;;4.90;3.20;;;5.00;99.90;;;;;;5026602;28;20220;-89
2023/12/05 05:40:11;;;;;;;2.90;2.60;;;4.50;99.90;;;;;;4997185;28;20195;-89
2023/12/05 05:42:38;;;;;;;4.17;3.20;;;4.60;99.90;;;;;;5014331;28;20285;-88
2023/12/05 05:45:05;;;;;;;4.45;3.30;;;4.90;99.90;;;;;;4999424;28;20221;-89
2023/12/05 05:47:31;;;;;;;3.97;2.95;;;4.70;99.90;;;;;;5024173;28;20264;-89
2023/12/05 05:49:57;;;;;;;4.27;3.70;;;4.70;99.90;;;;;;5008567;28;20181;-89
2023/12/05 05:52:23;;;;;;;4.35;3.15;;;5.30;99.90;;;;;;5019053;28;20455;-89
2023/12/05 05:54:50;;;;;;;4.03;2.97;;;;;;;;;;5001910;28;20327;-89
2023/12/05 05:57:16;;;;;;;3.90;3.50;;;4.80;99.90;;;;;;4997514;28;20196;-89
2023/12/05 05:59:45;;;;;;;4.10;3.30;;;5.00;99.90;;;;;;5000099;28;20323;-88
2023/12/05 06:02:14;;;;;;;4.15;3.45;;;4.70;99.90;;;;;;5011300;28;20606;-89
2023/12/05 06:04:40;;;;;;;3.83;3.00;;;4.60;99.90;;;;;;4998167;28;20209;-89
2023/12/05 06:07:07;;;;;;;5.35;3.50;;;4.60;99.90;;;;;;5010751;28;20194;-90
2023/12/05 06:09:32;;;;;;;3.35;3.00;;;5.10;99.90;;;;;;4995127;28;20213;-90
2023/12/05 06:11:58;;;;;;;3.47;3.00;;;4.70;99.90;;;;;;5014836;28;20178;-91
2023/12/05 06:14:24;;;;;;;3.60;2.70;;;4.80;99.90;;;;;;5001412;28;20232;-92
2023/12/05 06:16:49;;;;;;;5.80;3.47;;;4.70;99.90;;;;;;5018158;28;20461;-91
2023/12/05 06:19:15;;;;;;;3.30;2.93;;;5.10;99.90;;;;;;5018438;28;20715;-91
2023/12/05 06:21:40;;;;;;;3.63;3.33;;;4.80;99.90;;;;;;5003777;28;20190;-91
2023/12/05 06:24:08;;;;;;;5.10;3.37;;;5.10;99.90;;;;;;5000422;28;20228;-90
2023/12/05 06:26:34;;;;;;;5.60;4.30;;;4.80;99.90;;;;;;5008926;28;20205;-91
2023/12/05 06:29:03;;;;;;;7.15;4.25;;;4.60;99.90;;;;;;5029077;28;20289;-92
2023/12/05 06:31:29;;;;;;;5.30;3.58;;;4.50;99.90;;;;;;5024540;28;20189;-91
2023/12/05 06:33:54;;;;;;;4.30;3.67;;;4.60;99.90;;;;;;5000615;28;20202;-89
2023/12/05 06:36:20;;;;;;;4.97;3.03;;;4.20;99.90;;;;;;5001177;28;20248;-91
2023/12/05 06:38:45;;;;;;;3.93;3.63;;;4.70;99.90;;;;;;5003394;28;20277;-89
2023/12/05 06:41:11;;;;;;;3.63;2.83;;;4.80;99.90;;;;;;5000186;28;20186;-91
2023/12/05 06:43:37;;;;;;;7.30;3.10;;;4.80;99.90;;;;;;5018632;28;20197;-88
2023/12/05 06:46:03;;;;;;;4.83;3.30;;;5.10;99.90;;;;;;4999431;28;20468;-91
2023/12/05 06:48:28;;;;;;;4.73;3.57;;;4.80;99.90;;;;;;5024210;28;20189;-91
2023/12/05 06:50:54;;;;;;;5.97;3.20;;;4.80;99.90;;;;;;5018167;28;20220;-91
2023/12/05 06:53:20;;;;;;;4.50;3.63;;;4.80;99.90;;;;;;5030419;28;20216;-91
2023/12/05 06:55:48;;;;;;;4.13;3.40;;;4.80;99.90;;;;;;5018115;28;20436;-91
2023/12/05 06:58:14;;;;;;;4.63;3.50;;;4.80;99.90;;;;;;4984481;28;20205;-91
2023/12/05 07:00:39;;;;;;;3.37;2.70;;;4.60;99.90;;;;;;5015057;28;20182;-92
2023/12/05 07:03:05;;;;;;;3.13;2.83;;;4.70;99.90;;;;;;4997752;28;20193;-89
2023/12/05 07:05:31;;;;;;;5.63;2.97;;;4.70;99.90;;;;;;5016016;28;20193;-89
2023/12/05 07:07:56;;;;;;;5.30;3.53;;;4.60;99.90;;;;;;5015442;28;22043;-88
2023/12/05 07:10:23;;;;;;;4.70;3.77;;;4.60;99.90;;;;;;5015615;28;20207;-87
2023/12/05 07:12:49;;;;;;;3.97;3.15;;;4.70;99.90;;;;;;4997034;28;20970;-88
2023/12/05 07:15:14;;;;;;;4.33;3.03;;;4.80;99.90;;;;;;5022452;28;20210;-88
2023/12/05 07:17:40;;;;;;;4.27;3.27;;;4.60;99.90;;;;;;5002797;28;20221;-86
2023/12/05 07:20:08;;;;;;;5.40;3.93;;;4.60;99.90;;;;;;5015954;28;20177;-89
2023/12/05 07:22:35;;;;;;;4.90;3.42;;;4.60;99.90;;;;;;4995121;28;20188;-89
2023/12/05 07:25:01;;;;;;;3.72;3.17;;;4.60;99.90;;;;;;5016496;28;20215;-89
2023/12/05 07:27:26;;;;;;;4.13;3.60;;;5.90;99.90;;;;;;5011214;28;20190;-89
2023/12/05 07:29:52;;;;;;;5.27;3.13;;;4.80;99.90;;;;;;5013167;28;20433;-88
2023/12/05 07:32:19;;;;;;;7.33;4.57;;;4.70;99.90;;;;;;5013340;28;20193;-90
2023/12/05 07:34:45;;;;;;;3.20;2.80;;;5.00;99.90;;;;;;5012673;28;20204;-87
2023/12/05 07:37:10;;;;;;;4.80;2.97;;;4.60;99.90;;;;;;5015970;28;20216;-86
2023/12/05 07:39:37;;;;;;;3.20;2.90;;;;;;;;;;5029467;28;20484;-88
2023/12/05 07:42:03;;;;;;;5.28;3.22;;;4.80;99.90;;;;;;5001251;28;20178;-88
2023/12/05 07:44:28;;;;;;;2.60;2.40;;;4.80;99.90;;;;;;5012571;28;20191;-87
2023/12/05 07:46:54;;;;;;;4.00;3.23;;;5.00;99.90;;;;;;5011470;28;20444;-84
2023/12/05 07:49:20;;;;;;;4.97;3.30;;;5.30;99.90;;;;;;4997680;28;20215;-89
2023/12/05 07:51:47;;;;;;;3.60;3.30;;;4.80;99.90;;;;;;5018601;28;20451;-90
2023/12/05 07:54:13;;;;;;;4.30;2.80;;;;;;;;;;5025706;28;20220;-89
2023/12/05 07:56:39;;;;;;;3.43;2.30;;;4.90;99.90;;;;;;5022336;28;20233;-89
2023/12/05 07:59:05;;;;;;;7.20;2.63;;;;;;;;;;5008296;28;20453;-87
2023/12/05 08:01:31;;;;;;;3.38;2.45;;;5.00;99.90;;;;;;5027749;28;20183;-88
2023/12/05 08:03:57;;;;;;;5.00;3.03;;;5.20;99.90;;;;;;5007161;28;20248;-89
2023/12/05 08:06:24;;;;;;;3.15;2.40;;;5.40;99.90;;;;;;5018233;28;20194;-88
2023/12/05 08:08:52;;;;;;;4.00;2.45;;;5.40;99.90;;;;;;5019608;28;20197;-85
2023/12/05 08:11:19;;;;;;;4.53;2.58;;;4.90;99.90;;;;;;5002118;28;20254;-86
2023/12/05 08:13:47;;;;;;;4.18;2.53;;;5.00;99.90;;;;;;5015662;28;20212;-82
2023/12/05 08:16:13;;;;;;;8.55;3.35;;;5.10;99.90;;;;;;5021417;28;20210;-85
2023/12/05 08:18:38;;;;;;;3.77;3.20;;;5.70;99.90;;;;;;5002108;28;20222;-88
2023/12/05 08:21:05;;;;;;;8.20;4.97;;;5.70;99.90;;;;;;5018394;28;20180;-88
2023/12/05 08:23:31;;;;;;;2.97;1.90;;;5.20;99.90;;;;;;5020903;28;20704;-86
2023/12/05 08:25:57;;;;;;;3.37;2.57;;;5.30;99.90;;;;;;5004388;28;20194;-84
2023/12/05 08:28:23;;;;;;;3.43;2.90;;;5.30;99.90;;;;;;5017851;28;20276;-89
2023/12/05 08:30:48;;;;;;;4.90;3.67;;;5.90;99.90;;;;;;4999844;28;20182;-85
2023/12/05 08:33:15;;;;;;;4.43;3.13;;;5.40;99.90;;;;;;5016621;28;20221;-86
2023/12/05 08:35:40;;;;;;;2.85;2.60;;;5.90;99.90;;;;;;5025131;28;20181;-85
2023/12/05 08:38:06;;;;;;;3.23;2.80;;;5.60;99.90;;;;;;5007774;28;20376;-86
2023/12/05 08:40:31;;;;;;;3.53;2.00;;;5.70;99.90;;;;;;5027398;28;20190;-84
2023/12/05 08:42:57;;;;;;;3.27;2.60;;;5.60;99.90;;;;;;4994734;28;20226;-84
2023/12/05 08:45:24;;;;;;;3.03;2.70;;;5.50;99.90;;;;;;5028299;28;20213;-86
2023/12/05 08:47:53;;;;;;;2.45;1.40;;;5.80;99.90;;;;;;5023454;28;20190;-84
2023/12/05 08:50:19;;;;;;;2.33;1.60;;;6.20;99.90;;;;;;5014232;28;20270;-87
2023/12/05 08:52:45;;;;;;;1.83;1.60;;;6.60;99.90;;;;;;5018698;28;20268;-88
2023/12/05 08:55:10;;;;;;;1.73;1.63;;;6.40;99.90;;;;;;5017917;28;20439;-88
2023/12/05 08:57:36;;;;;;;1.83;1.60;;;6.50;99.90;;;;;;5013567;28;20297;-89
2023/12/05 09:00:04;;;;;;;3.03;1.33;;;6.40;99.90;;;;;;5015059;28;20235;-90
2023/12/05 09:02:30;;;;;;;2.92;1.70;;;6.60;99.90;;;;;;5015205;28;20201;-89
2023/12/05 09:04:56;;;;;;;2.67;2.20;;;6.60;99.90;;;;;;4998310;28;20314;-84
2023/12/05 09:07:22;;;;;;;5.80;1.90;;;6.90;99.90;;;;;;5002245;28;20438;-85
2023/12/05 09:09:47;;;;;;;1.48;1.30;;;6.80;99.90;;;;;;5020265;28;20251;-87
2023/12/05 09:12:13;;;;;;;3.00;1.87;;;7.00;99.90;;;;;;5021597;28;20222;-89
2023/12/05 09:14:40;;;;;;;6.60;1.50;;;7.10;99.90;;;;;;4998645;28;20219;-88
2023/12/05 09:17:09;;;;;;;2.10;1.50;;;7.90;99.90;;;;;;4997897;28;20436;-88
2023/12/05 09:19:35;;;;;;;2.17;1.42;;;8.10;99.90;;;;;;5000969;28;20230;-88
2023/12/05 09:22:00;;;;;;;2.40;1.53;;;8.70;99.90;;;;;;5013977;28;20187;-88
2023/12/05 09:24:26;;;;;;;2.80;1.87;;;9.70;99.90;;;;;;5013591;28;20469;-87
2023/12/05 09:26:52;;;;;;;2.70;1.63;;;10.70;99.90;;;;;;5023596;28;20456;-89
2023/12/05 09:29:18;;;;;;;2.70;1.20;;;11.20;98.30;;;;;;5011020;28;20445;-88
2023/12/05 09:31:44;;;;;;;2.00;1.53;;;12.10;96.10;;;;;;4997957;28;20198;-89
2023/12/05 09:34:09;;;;;;;2.03;1.10;;;13.00;94.40;;;;;;5039203;28;20493;-89
2023/12/05 09:36:35;;;;;;;1.83;1.10;;;13.30;92.90;;;;;;5035822;28;20213;-90
2023/12/05 09:39:00;;;;;;;1.50;1.10;;;13.60;91.90;;;;;;5020763;28;20222;-90
2023/12/05 09:41:28;;;;;;;1.77;1.10;;;13.90;91.00;;;;;;5020789;28;20186;-89
2023/12/05 09:43:55;;;;;;;2.22;1.42;;;13.10;91.30;;;;;;5037703;28;20214;-89
2023/12/05 09:46:21;;;;;;;1.25;1.10;;;12.60;92.20;;;;;;5036858;28;20247;-89
2023/12/05 09:48:48;;;;;;;1.25;1.15;;;12.00;92.70;;;;;;5036557;28;20173;-89
2023/12/05 09:51:18;;;;;;;1.40;1.15;;;11.90;93.20;;;;;;5037307;28;20282;-89
2023/12/05 09:53:45;;;;;;;2.05;1.35;;;12.30;93.40;;;;;;5020537;28;20552;-90
2023/12/05 09:56:13;;;;;;;2.70;1.73;;;11.90;93.10;;;;;;5035254;28;20213;-91
2023/12/05 09:58:45;;;;;;;1.33;1.05;;;14.80;94.30;;;;;;5037249;28;20199;-90
2023/12/05 10:01:16;;;;;;;2.47;1.15;;;12.80;91.90;;;;;;5020080;28;20187;-90
2023/12/05 10:03:44;;;;;;;2.05;1.30;;;12.50;92.00;;;;;;5034115;28;20201;-92
2023/12/05 10:06:11;;;;;;;1.95;1.40;;;12.30;93.00;;;;;;5008844;28;20197;-89
2023/12/05 10:08:37;;;;;;;1.83;1.15;;;11.90;93.80;;;;;;5003143;28;20178;-89
2023/12/05 10:11:04;;;;;;;2.20;1.30;;;11.70;94.10;;;;;;5026606;28;20259;-89
2023/12/05 10:13:30;;;;;;;1.65;1.30;;;11.60;93.20;;;;;;5008001;28;20474;-91
2023/12/05 10:15:58;;;;;;;2.20;1.42;;;11.80;94.00;;;;;;5003899;28;20210;-91
2023/12/05 10:18:25;;;;;;;2.30;1.48;;;11.40;94.60;;;;;;5005997;28;20174;-90
2023/12/05 10:20:50;;;;;;;1.50;1.10;;;12.20;94.60;;;;;;5030638;28;20178;-86
2023/12/05 10:23:17;;;;;;;1.30;1.20;;;12.20;94.00;;;;;;5028581;28;20241;-91
2023/12/05 10:25:43;;;;;;;1.80;1.50;;;12.40;93.10;;;;;;5033777;28;20204;-89
2023/12/05 10:28:08;;;;;;;1.27;1.17;;;12.90;92.00;;;;;;5014099;28;20191;-91
2023/12/05 10:30:37;;;;;;;1.73;1.40;;;13.30;90.80;;;;;;5007044;28;20275;-91
2023/12/05 10:33:13;;;;;;;2.00;1.40;;;14.10;89.70;;;;;;5017133;28;20180;-87
2023/12/05 10:35:40;;;;;;;1.40;1.30;;;14.20;89.00;;;;;;5018661;28;20182;-88
2023/12/05 10:38:07;;;;;;;1.25;1.10;;;14.60;88.40;;;;;;5019501;28;20222;-90
2023/12/05 10:40:53;;;;;;;3.17;2.10;;;15.30;86.40;;;;;;5006493;28;20183;-88
2023/12/05 10:43:20;;;;;;;2.35;1.23;;;14.50;85.80;;;;;;5012965;28;20612;-87
2023/12/05 10:45:47;;;;;;;1.17;1.05;;;15.20;86.30;;;;;;5015213;28;20175;-88
2023/12/05 10:48:14;;;;;;;1.65;1.23;;;15.20;84.80;;;;;;5014969;28;20202;-88
2023/12/05 10:50:40;;;;;;;1.52;1.10;;;15.20;83.10;;;;;;4997622;28;20187;-89
2023/12/05 10:53:06;;;;;;;1.35;1.10;;;13.80;86.10;;;;;;5016215;28;20195;-88
2023/12/05 10:55:34;;;;;;;1.20;1.10;;;13.90;87.10;;;;;;4980572;28;20187;-89
2023/12/05 10:58:00;;;;;;;2.30;1.30;;;14.20;87.70;;;;;;5013172;28;20474;-89
2023/12/05 11:00:29;;;;;;;1.50;1.10;;;15.00;87.70;;;;;;5014499;28;20291;-90
2023/12/05 11:02:56;;;;;;;1.75;1.25;;;14.00;86.20;;;;;;5018928;28;20183;-91
2023/12/05 11:05:22;;;;;;;1.35;1.25;;;12.90;88.80;;;;;;5021597;28;20229;-92
2023/12/05 11:07:48;;;;;;;1.20;1.10;;;13.10;90.60;;;;;;5017415;28;20265;-93
2023/12/05 11:10:18;;;;;;;2.17;1.20;;;12.60;90.30;;;;;;5037959;28;20175;-91
2023/12/05 11:12:50;;;;;;;1.80;1.02;;;13.00;90.80;;;;;;5014565;28;20251;-88
2023/12/05 11:15:18;;;;;;;1.08;0.90;;;12.90;90.20;;;;;;4999728;28;20199;-90
2023/12/05 11:17:53;;;;;;;1.33;1.00;;;12.90;90.50;;;;;;5000370;28;20249;-89
2023/12/05 11:20:25;;;;;;;2.00;1.25;;;13.00;90.60;;;;;;4997686;28;20179;-90
2023/12/05 11:23:31;;;;;;;1.15;0.90;;;12.50;90.70;;;;;;5016491;28;20252;-90
2023/12/05 11:26:29;;;;;;;1.42;1.33;;;12.40;91.30;;;;;;4983012;28;20210;-90
2023/12/05 11:29:07;;;;;;;1.70;1.20;;;12.30;91.40;;;;;;5015667;28;20481;-90
2023/12/05 11:31:51;;;;;;;1.70;1.25;;;12.20;91.30;;;;;;5018515;28;20175;-91
2023/12/05 11:34:40;;;;;;;1.10;1.00;;;12.10;91.40;;;;;;5017845;28;20671;-89
2023/12/05 11:37:24;;;;;;;1.30;0.98;;;12.00;92.00;;;;;;5018347;28;20206;-90
2023/12/05 11:39:51;;;;;;;1.33;1.23;;;11.80;92.30;;;;;;5016545;28;20238;-89
2023/12/05 11:42:19;;;;;;;1.10;1.00;;;11.60;92.60;;;;;;5019390;28;20244;-89
2023/12/05 11:44:45;;;;;;;1.50;1.20;;;11.50;93.30;;;;;;4999840;28;20203;-90
2023/12/05 11:47:16;;;;;;;1.48;1.05;;;11.40;94.20;;;;;;5018676;28;20197;-90
2023/12/05 11:49:50;;;;;;;2.65;1.00;;;11.30;94.40;;;;;;5017044;28;20195;-89
2023/12/05 11:52:18;;;;;;;2.25;1.20;;;11.20;94.80;;;;;;5018254;28;20614;-89
2023/12/05 11:54:46;;;;;;;1.35;1.20;;;10.80;94.60;;;;;;5017441;28;20215;-91
2023/12/05 11:57:23;;;;;;;2.22;1.30;;;10.90;94.70;;;;;;5021362;28;20211;-89
2023/12/05 11:59:52;;;;;;;1.73;1.42;;;10.50;94.70;;;;;;5004793;28;20193;-91
2023/12/05 12:02:24;;;;;;;2.38;1.50;;;11.20;95.20;;;;;;4972883;28;20281;-89
2023/12/05 12:05:05;;;;;;;1.20;1.10;;;10.90;95.10;;;;;;5015736;28;20271;-89
2023/12/05 12:07:31;;;;;;;1.30;1.20;;;10.70;95.20;;;;;;5000602;28;20301;-87
2023/12/05 12:09:56;;;;;;;1.50;1.30;;;11.10;95.70;;;;;;5018492;28;20181;-89
2023/12/05 12:12:24;;;;;;;1.70;1.00;;;11.00;95.50;;;;;;5019727;28;20197;-91
2023/12/05 12:14:49;;;;;;;1.83;1.27;;;10.70;95.10;;;;;;5022827;28;20206;-91
2023/12/05 12:17:15;;;;;;;5.13;1.40;;;10.90;95.20;;;;;;5020540;28;20244;-91
2023/12/05 12:19:41;;;;;;;3.00;2.80;;;11.00;95.30;;;;;;5019534;28;20214;-90
2023/12/05 12:22:12;;;;;;;2.30;1.17;;;10.60;95.30;;;;;;5024255;28;20193;-93
2023/12/05 12:24:39;;;;;;;1.63;1.27;;;10.30;95.40;;;;;;5021963;28;20201;-91
2023/12/05 12:27:07;;;;;;;2.30;1.40;;;9.70;97.10;;;;;;5010222;28;20219;-93
2023/12/05 12:29:35;;;;;;;1.65;1.55;;;9.80;97.50;;;;;;5023791;28;20675;-91
2023/12/05 12:32:09;;;;;;;2.55;1.10;;;10.20;97.30;;;;;;5022236;28;20243;-92
2023/12/05 12:34:35;;;;;;;2.33;1.77;;;9.70;97.70;;;;;;4990965;28;20208;-90
2023/12/05 12:37:02;;;;;;;1.33;1.23;;;9.50;98.10;;;;;;4992251;28;20211;-90
2023/12/05 12:39:29;;;;;;;2.50;1.15;;;10.00;97.80;;;;;;5023294;28;20482;-88
2023/12/05 12:42:00;;;;;;;3.20;1.40;;;10.00;98.00;;;;;;5009873;28;20216;-90
2023/12/05 12:44:27;;;;;;;3.15;1.38;;;9.60;98.20;;;;;;5028487;28;20228;-91
2023/12/05 12:46:55;;;;;;;1.80;1.70;;;11.30;98.90;;;;;;5014010;28;20266;-93
2023/12/05 12:49:22;;;;;;;1.90;1.30;;;9.10;98.60;;;;;;5026348;28;20192;-92
2023/12/05 12:51:55;;;;;;;1.40;0.93;;;10.60;99.00;;;;;;5025956;28;20187;-90
2023/12/05 12:54:23;;;;;;;1.10;1.00;;;9.30;98.20;;;;;;5016646;28;20616;-86
2023/12/05 12:56:51;;;;;;;1.48;1.10;;;9.80;98.30;;;;;;5019710;28;20204;-88